Time;durP1;ratioP1;P1;durP2;ratioP2;P2;SDS_P1;SDS_P2;PMS_P1;PMS_P2;Temp;Humidity;BMP_temperature;BMP_pressure;BME280_temperature;BME280_humidity;BME280_pressure;Samples;Min_cycle;Max_cycle;Signal;HPM_P1;HPM_P2
2022/01/25 00:10:02;;;;;;;;;;;23.60;73.20;;;;;;5050736;28;19915;-72
2022/01/25 00:26:23;;;;;;;;;;;23.40;72.70;;;;;;5069925;28;19916;-72
2022/01/25 00:29:05;;;;;;;;;;;23.40;73.00;;;;;;5070747;28;20262;-72
2022/01/25 00:31:32;;;;;;;;;;;23.30;73.60;;;;;;5054381;28;19924;-73
2022/01/25 00:33:59;;;;;;;;;;;23.30;73.50;;;;;;5070244;28;20006;-73
2022/01/25 00:36:26;;;;;;;;;;;23.30;73.80;;;;;;5069848;28;19909;-72
2022/01/25 00:38:52;;;;;;;;;;;23.40;73.00;;;;;;5069234;28;19913;-73
2022/01/25 00:55:53;;;;;;;;;;;23.50;73.10;;;;;;5064704;28;19938;-72
2022/01/25 00:58:20;;;;;;;;;;;23.40;72.80;;;;;;5055640;28;20057;-72
2022/01/25 01:00:46;;;;;;;;;;;23.50;73.20;;;;;;5036758;28;19927;-72
2022/01/25 01:03:13;;;;;;;;;;;23.50;73.30;;;;;;5067771;28;20445;-72
2022/01/25 01:05:40;;;;;;;;;;;23.40;73.20;;;;;;5069638;28;19908;-73
2022/01/25 01:08:07;;;;;;;;;;;23.40;73.90;;;;;;5068640;28;19915;-72
2022/01/25 01:10:34;;;;;;;;;;;23.40;74.10;;;;;;5065021;28;19924;-72
2022/01/25 01:13:29;;;;;;;;;;;23.40;73.80;;;;;;5065411;28;19913;-73
2022/01/25 01:16:32;;;;;;;;;;;23.40;74.10;;;;;;5062860;28;19913;-72
2022/01/25 01:30:27;;;;;;;;;;;23.60;73.60;;;;;;5060857;28;20180;-72
2022/01/25 01:38:42;;;;;;;;;;;23.60;72.60;;;;;;5061776;28;19923;-72
2022/01/25 01:43:52;;;;;;;;;;;23.70;73.20;;;;;;5066609;28;19954;-71
2022/01/25 01:46:30;;;;;;;;;;;23.80;73.30;;;;;;5056003;28;19914;-72
2022/01/25 01:49:00;;;;;;;;;;;23.90;72.80;;;;;;5056792;28;20367;-72
2022/01/25 01:51:33;;;;;;;;;;;24.00;72.50;;;;;;5073235;28;19961;-73
2022/01/25 03:07:59;;;;;;;;;;;24.70;71.00;;;;;;5055003;28;21092;-72
2022/01/25 03:10:35;;;;;;;;;;;24.70;70.60;;;;;;5066712;28;19981;-73
2022/01/25 03:13:02;;;;;;;;;;;24.80;71.90;;;;;;5068041;28;20002;-73
2022/01/25 03:18:25;;;;;;;;;;;24.70;70.10;;;;;;5084126;28;19969;-73
2022/01/25 03:21:00;;;;;;;;;;;24.60;69.40;;;;;;5070030;28;19962;-71
2022/01/25 03:23:29;;;;;;;;;;;24.70;70.40;;;;;;5070202;28;20082;-72
2022/01/25 03:25:55;;;;;;;;;;;24.60;69.80;;;;;;5068820;28;19914;-73
2022/01/25 03:28:22;;;;;;;;;;;24.70;69.60;;;;;;5051254;28;19953;-73
2022/01/25 03:30:49;;;;;;;;;;;24.60;69.40;;;;;;5066142;28;20022;-73
2022/01/25 03:33:15;;;;;;;;;;;24.60;68.60;;;;;;5078648;28;19904;-73
2022/01/25 03:35:43;;;;;;;;;;;24.60;69.90;;;;;;5086496;28;19950;-73
2022/01/25 03:38:09;;;;;;;;;;;24.60;69.70;;;;;;5038099;28;19908;-73
2022/01/25 03:40:36;;;;;;;;;;;24.60;71.20;;;;;;5057085;28;19962;-72
2022/01/25 03:43:05;;;;;;;;;;;24.60;71.60;;;;;;5073669;28;19927;-72
2022/01/25 03:45:34;;;;;;;;;;;24.60;70.80;;;;;;5075643;28;20418;-73
2022/01/25 03:50:43;;;;;;;;;;;24.60;70.80;;;;;;5069171;28;19916;-72
2022/01/25 03:53:10;;;;;;;;;;;24.50;68.90;;;;;;5075933;28;19950;-72
2022/01/25 03:55:37;;;;;;;;;;;24.50;70.00;;;;;;5077737;28;20250;-72
2022/01/25 03:58:04;;;;;;;;;;;24.50;69.20;;;;;;5051506;28;19912;-73
2022/01/25 04:00:31;;;;;;;;;;;24.60;68.90;;;;;;5078152;28;19915;-72
2022/01/25 04:03:02;;;;;;;;;;;24.60;68.60;;;;;;5049452;28;20282;-72
2022/01/25 04:05:49;;;;;;;;;;;24.60;70.10;;;;;;5062900;28;20037;-73
2022/01/25 04:26:08;;;;;;;;;;;24.60;70.40;;;;;;5058933;28;20050;-73
2022/01/25 04:28:35;;;;;;;;;;;24.60;68.60;;;;;;5067888;28;19915;-72
2022/01/25 04:31:02;;;;;;;;;;;24.50;68.30;;;;;;5070142;28;19916;-73
2022/01/25 04:33:39;;;;;;;;;;;24.50;69.30;;;;;;5065499;28;19909;-72
2022/01/25 04:49:36;;;;;;;;;;;24.60;68.50;;;;;;5068519;28;19919;-70
2022/01/25 04:52:07;;;;;;;;;;;24.60;68.40;;;;;;5066559;28;20354;-73
2022/01/25 04:59:53;;;;;;;;;;;24.60;68.70;;;;;;5073620;28;19954;-70
2022/01/25 05:02:34;;;;;;;;;;;24.60;68.60;;;;;;5063925;28;19912;-69
2022/01/25 05:05:15;;;;;;;;;;;24.60;68.50;;;;;;5072486;28;20343;-70
2022/01/25 05:08:07;;;;;;;;;;;24.60;68.90;;;;;;5072371;28;19943;-70
2022/01/25 05:10:46;;;;;;;;;;;24.60;69.20;;;;;;5068794;28;19986;-75
2022/01/25 05:13:29;;;;;;;;;;;24.70;69.10;;;;;;5067573;28;19975;-75
2022/01/25 05:16:26;;;;;;;;;;;24.60;68.90;;;;;;5072516;28;19915;-69
2022/01/25 05:19:02;;;;;;;;;;;24.60;69.30;;;;;;5069949;28;19908;-70
2022/01/25 05:36:36;;;;;;;;;;;24.50;69.00;;;;;;5078117;28;20002;-70
2022/01/25 05:39:16;;;;;;;;;;;24.50;67.90;;;;;;5092360;28;19918;-70
2022/01/25 05:41:45;;;;;;;;;;;24.50;68.20;;;;;;5090072;28;19977;-69
2022/01/25 05:49:23;;;;;;;;;;;24.50;69.40;;;;;;5074586;28;20299;-72
2022/01/25 05:51:50;;;;;;;;;;;24.50;69.50;;;;;;5092594;28;19916;-71
2022/01/25 05:54:16;;;;;;;;;;;24.50;69.90;;;;;;5090600;28;19949;-70
2022/01/25 05:56:43;;;;;;;;;;;24.50;69.20;;;;;;5089899;28;19908;-70
2022/01/25 05:59:09;;;;;;;;;;;24.50;68.40;;;;;;5084493;28;19912;-69
2022/01/25 06:01:36;;;;;;;;;;;24.50;68.80;;;;;;5093125;28;19915;-70
2022/01/25 06:04:03;;;;;;;;;;;24.50;68.40;;;;;;5073057;28;19908;-70
2022/01/25 06:06:30;;;;;;;;;;;24.50;68.20;;;;;;5071028;28;20001;-70
2022/01/25 06:08:57;;;;;;;;;;;24.50;68.90;;;;;;5092584;28;20002;-72
2022/01/25 06:11:23;;;;;;;;;;;24.50;68.80;;;;;;5082277;28;20707;-69
2022/01/25 06:13:50;;;;;;;;;;;24.40;68.80;;;;;;5091049;28;20348;-71
2022/01/25 06:16:16;;;;;;;;;;;24.40;68.80;;;;;;5091223;28;19908;-70
2022/01/25 06:18:43;;;;;;;;;;;24.30;69.30;;;;;;5079789;28;19904;-68
2022/01/25 06:21:09;;;;;;;;;;;24.30;68.50;;;;;;5092573;28;20294;-69
2022/01/25 06:23:36;;;;;;;;;;;24.30;68.10;;;;;;5083835;28;19958;-69
2022/01/25 06:26:03;;;;;;;;;;;24.30;68.50;;;;;;5086465;28;19915;-69
2022/01/25 06:28:29;;;;;;;;;;;24.30;68.70;;;;;;5092472;28;19908;-69
2022/01/25 06:30:56;;;;;;;;;;;24.30;68.50;;;;;;5092477;28;19916;-69
2022/01/25 06:33:22;;;;;;;;;;;24.30;69.20;;;;;;5088665;28;19915;-69
2022/01/25 07:20:09;;;;;;;;;;;24.00;69.60;;;;;;5067668;28;19946;-74
2022/01/25 07:22:36;;;;;;;;;;;24.00;70.20;;;;;;5068280;28;19920;-74
2022/01/25 07:25:03;;;;;;;;;;;24.00;70.20;;;;;;5064828;28;19999;-74
2022/01/25 07:27:29;;;;;;;;;;;24.00;70.10;;;;;;5069538;28;19908;-74
2022/01/25 07:29:56;;;;;;;;;;;24.10;70.60;;;;;;5069321;28;20028;-73
2022/01/25 07:32:22;;;;;;;;;;;24.10;70.50;;;;;;5070294;28;19935;-73
2022/01/25 07:34:49;;;;;;;;;;;24.00;70.70;;;;;;5068920;28;19995;-75
2022/01/25 07:37:15;;;;;;;;;;;24.00;69.90;;;;;;5069637;28;19908;-73
2022/01/25 07:39:42;;;;;;;;;;;24.00;69.80;;;;;;5064660;28;19961;-74
2022/01/25 07:42:10;;;;;;;;;;;24.00;70.00;;;;;;5061585;28;21687;-74
2022/01/25 07:44:38;;;;;;;;;;;24.00;69.90;;;;;;5055626;28;19913;-74
2022/01/25 07:47:05;;;;;;;;;;;24.00;69.80;;;;;;5069755;28;19934;-74
2022/01/25 07:49:32;;;;;;;;;;;23.90;69.90;;;;;;5063090;28;20367;-74
2022/01/25 07:51:58;;;;;;;;;;;23.80;70.00;;;;;;5053129;28;19924;-74
2022/01/25 07:54:25;;;;;;;;;;;23.80;70.20;;;;;;5055662;28;19979;-74
2022/01/25 07:56:52;;;;;;;;;;;23.80;70.30;;;;;;5057227;28;19905;-74
2022/01/25 07:59:19;;;;;;;;;;;23.80;70.00;;;;;;5061320;28;19915;-75
2022/01/25 08:01:45;;;;;;;;;;;23.80;70.30;;;;;;5070095;28;19912;-75
2022/01/25 08:04:12;;;;;;;;;;;23.80;69.90;;;;;;5062345;28;19905;-74
2022/01/25 08:06:39;;;;;;;;;;;23.80;69.60;;;;;;5069158;28;19923;-75
2022/01/25 08:09:06;;;;;;;;;;;23.80;69.70;;;;;;5070283;28;20035;-75
2022/01/25 08:11:32;;;;;;;;;;;23.70;69.60;;;;;;5069861;28;19916;-74
2022/01/25 08:14:12;;;;;;;;;;;23.70;69.90;;;;;;5066412;28;19908;-74
2022/01/25 08:16:40;;;;;;;;;;;23.70;70.10;;;;;;5071305;28;19912;-75
2022/01/25 08:19:06;;;;;;;;;;;23.70;70.70;;;;;;5070761;28;19914;-74
2022/01/25 09:52:58;;;;;;;;;;;23.40;71.70;;;;;;5060094;28;20793;-71
2022/01/25 09:55:28;;;;;;;;;;;23.30;72.20;;;;;;5070459;28;19920;-70
2022/01/25 09:57:54;;;;;;;;;;;23.30;72.10;;;;;;5064811;28;19913;-73
2022/01/25 10:00:22;;;;;;;;;;;23.30;72.20;;;;;;5072887;28;19961;-72
2022/01/25 10:02:59;;;;;;;;;;;23.30;72.60;;;;;;5051957;28;19904;-72
2022/01/25 10:05:30;;;;;;;;;;;23.30;72.60;;;;;;5057600;28;19916;-72
2022/01/25 10:07:57;;;;;;;;;;;23.30;72.40;;;;;;5075321;28;19908;-73
2022/01/25 10:10:24;;;;;;;;;;;23.30;72.70;;;;;;5075592;28;19960;-73
2022/01/25 10:12:51;;;;;;;;;;;23.30;72.50;;;;;;5072480;28;19912;-73
2022/01/25 10:15:17;;;;;;;;;;;23.30;72.40;;;;;;5072681;28;20381;-73
2022/01/25 10:17:44;;;;;;;;;;;23.30;72.30;;;;;;5066458;28;20429;-74
2022/01/25 10:20:26;;;;;;;;;;;23.30;72.40;;;;;;5054955;28;19908;-73
2022/01/25 10:22:53;;;;;;;;;;;23.30;72.50;;;;;;5055047;28;19909;-73
2022/01/25 10:25:33;;;;;;;;;;;23.30;73.10;;;;;;5066231;28;20026;-73
2022/01/25 10:28:04;;;;;;;;;;;23.30;73.10;;;;;;5069587;28;20267;-74
2022/01/25 10:30:31;;;;;;;;;;;23.30;73.10;;;;;;5076752;28;19923;-70
2022/01/25 10:33:01;;;;;;;;;;;23.30;72.80;;;;;;5076449;28;19958;-71
2022/01/25 10:35:28;;;;;;;;;;;23.30;72.80;;;;;;5072597;28;19905;-72
2022/01/25 10:37:55;;;;;;;;;;;23.30;72.80;;;;;;5061630;28;20506;-73
2022/01/25 10:40:50;;;;;;;;;;;23.30;72.60;;;;;;5062742;28;19958;-71
2022/01/25 10:43:20;;;;;;;;;;;23.20;72.70;;;;;;5056020;28;20271;-73
2022/01/25 10:45:46;;;;;;;;;;;23.20;72.70;;;;;;5054788;28;20399;-72
2022/01/25 10:48:14;;;;;;;;;;;23.20;73.00;;;;;;5080404;28;19905;-73
2022/01/25 10:50:43;;;;;;;;;;;23.20;73.30;;;;;;5072310;28;19939;-73
2022/01/25 10:53:17;;;;;;;;;;;23.20;72.90;;;;;;5050565;28;19970;-72
2022/01/25 10:55:44;;;;;;;;;;;23.20;73.00;;;;;;5084116;28;20374;-72
2022/01/25 10:58:11;;;;;;;;;;;23.20;72.40;;;;;;5092221;28;20003;-72
2022/01/25 11:00:42;;;;;;;;;;;23.10;72.90;;;;;;5080703;28;20024;-73
2022/01/25 11:03:08;;;;;;;;;;;23.20;72.80;;;;;;5092192;28;19961;-74
2022/01/25 11:05:36;;;;;;;;;;;23.10;72.60;;;;;;5086825;28;19913;-73
2022/01/25 11:08:16;;;;;;;;;;;23.10;73.30;;;;;;5081866;28;19916;-72
2022/01/25 11:10:49;;;;;;;;;;;23.10;73.30;;;;;;5092014;28;19912;-74
2022/01/25 11:13:34;;;;;;;;;;;23.10;73.90;;;;;;5088490;28;20022;-73
2022/01/25 11:16:02;;;;;;;;;;;23.10;73.70;;;;;;5090440;28;19916;-73
2022/01/25 11:18:31;;;;;;;;;;;23.10;73.20;;;;;;5088899;28;19951;-73
2022/01/25 11:20:59;;;;;;;;;;;23.10;73.80;;;;;;5084072;28;19908;-72
2022/01/25 11:23:26;;;;;;;;;;;23.10;73.40;;;;;;5079139;28;19967;-73
2022/01/25 11:25:53;;;;;;;;;;;23.00;73.50;;;;;;5060729;28;19966;-73
2022/01/25 11:28:20;;;;;;;;;;;23.00;73.40;;;;;;5063836;28;19908;-72
2022/01/25 11:30:47;;;;;;;;;;;23.00;74.10;;;;;;5079696;28;20073;-73
2022/01/25 11:33:13;;;;;;;;;;;23.00;73.30;;;;;;5050812;28;19950;-73
2022/01/25 11:35:40;;;;;;;;;;;23.00;73.10;;;;;;5045594;28;19908;-73
2022/01/25 11:38:07;;;;;;;;;;;23.10;73.30;;;;;;5043593;28;19905;-73
2022/01/25 11:40:38;;;;;;;;;;;23.00;73.50;;;;;;5069389;28;19908;-73
2022/01/25 11:43:06;;;;;;;;;;;23.10;73.60;;;;;;5055696;28;20433;-73
2022/01/25 11:45:37;;;;;;;;;;;23.10;74.40;;;;;;5056563;28;19904;-72
2022/01/25 11:48:03;;;;;;;;;;;23.00;74.10;;;;;;5071416;28;19904;-71
2022/01/25 11:50:35;;;;;;;;;;;23.10;74.10;;;;;;5080435;28;19915;-73
2022/01/25 11:53:06;;;;;;;;;;;23.10;74.30;;;;;;5069622;28;20443;-73
2022/01/25 11:55:48;;;;;;;;;;;23.10;74.60;;;;;;5065052;28;19912;-73
2022/01/25 11:58:16;;;;;;;;;;;23.10;74.20;;;;;;5071225;28;19915;-72
2022/01/25 12:00:44;;;;;;;;;;;23.00;74.10;;;;;;5070804;28;19965;-72
2022/01/25 12:03:23;;;;;;;;;;;23.10;74.00;;;;;;5068108;28;20332;-74
2022/01/25 12:05:59;;;;;;;;;;;23.10;74.20;;;;;;5070924;28;19915;-74
2022/01/25 12:11:29;;;;;;;;;;;23.10;74.60;;;;;;5069995;28;19967;-73
2022/01/25 12:14:14;;;;;;;;;;;23.00;74.10;;;;;;5069109;28;19904;-73
2022/01/25 12:16:45;;;;;;;;;;;23.10;74.20;;;;;;5065678;28;19931;-73
2022/01/25 12:19:12;;;;;;;;;;;23.10;74.60;;;;;;5056126;28;19944;-73
2022/01/25 12:21:50;;;;;;;;;;;23.10;74.10;;;;;;5053610;28;19904;-73
2022/01/25 12:24:18;;;;;;;;;;;23.00;74.10;;;;;;5064432;28;19920;-74
2022/01/25 12:26:56;;;;;;;;;;;23.00;74.20;;;;;;5055523;28;19951;-74
2022/01/25 12:29:30;;;;;;;;;;;23.00;73.90;;;;;;5054877;28;19931;-73
2022/01/25 12:32:15;;;;;;;;;;;23.00;73.70;;;;;;5070345;28;19916;-74
2022/01/25 12:35:00;;;;;;;;;;;23.00;73.80;;;;;;5079099;28;19908;-74
2022/01/25 12:37:46;;;;;;;;;;;23.00;73.80;;;;;;5055150;28;19962;-73
2022/01/25 12:40:29;;;;;;;;;;;23.10;74.10;;;;;;5070244;28;19915;-73
2022/01/25 12:42:59;;;;;;;;;;;23.00;73.50;;;;;;5069488;28;19924;-73
2022/01/25 12:45:45;;;;;;;;;;;23.00;73.70;;;;;;5080941;28;19908;-73
2022/01/25 12:48:13;;;;;;;;;;;23.00;73.40;;;;;;5059444;28;19909;-73
2022/01/25 12:50:40;;;;;;;;;;;23.00;73.50;;;;;;5065152;28;19912;-73
2022/01/25 12:53:07;;;;;;;;;;;23.00;73.50;;;;;;5048290;28;19920;-73
2022/01/25 12:55:35;;;;;;;;;;;22.90;73.60;;;;;;5090831;28;19935;-73
2022/01/25 12:58:01;;;;;;;;;;;22.90;73.40;;;;;;5093959;28;20412;-73
2022/01/25 13:00:29;;;;;;;;;;;23.00;73.70;;;;;;5078081;28;19912;-74
2022/01/25 13:03:11;;;;;;;;;;;22.90;73.60;;;;;;5087409;28;19903;-74
2022/01/25 13:05:45;;;;;;;;;;;22.90;73.80;;;;;;5076400;28;19908;-74
2022/01/25 13:08:23;;;;;;;;;;;23.00;74.20;;;;;;5092287;28;19912;-73
2022/01/25 13:10:51;;;;;;;;;;;22.90;73.90;;;;;;5089928;28;20305;-73
2022/01/25 13:13:47;;;;;;;;;;;22.90;73.90;;;;;;5090555;28;19927;-74
2022/01/25 13:16:10;;;;;;;;;;;22.90;74.10;;;;;;5101079;28;19915;-74
2022/01/25 13:18:38;;;;;;;;;;;22.90;74.50;;;;;;5082344;28;19904;-74
2022/01/25 13:21:06;;;;;;;;;;;22.90;74.60;;;;;;5094184;28;19916;-74
2022/01/25 13:23:33;;;;;;;;;;;22.80;74.40;;;;;;5089090;28;19916;-74
2022/01/25 13:26:10;;;;;;;;;;;22.80;74.80;;;;;;5094229;28;19904;-74
2022/01/25 13:28:53;;;;;;;;;;;22.80;74.60;;;;;;5093985;28;19911;-73
2022/01/25 13:31:20;;;;;;;;;;;22.80;74.70;;;;;;5090367;28;19916;-74
2022/01/25 13:33:47;;;;;;;;;;;22.80;74.90;;;;;;5081116;28;20010;-73
2022/01/25 13:36:17;;;;;;;;;;;22.80;74.90;;;;;;5094085;28;19935;-74
2022/01/25 13:38:43;;;;;;;;;;;22.80;74.80;;;;;;5094246;28;19911;-74
2022/01/25 13:46:09;;;;;;;;;;;22.80;75.10;;;;;;5084230;28;20508;-74
2022/01/25 13:48:36;;;;;;;;;;;22.80;74.90;;;;;;5094006;28;20289;-73
2022/01/25 13:51:06;;;;;;;;;;;22.80;75.20;;;;;;5092759;28;19912;-74
2022/01/25 14:24:54;;;;;;;;;;;22.80;75.60;;;;;;5086120;28;19962;-75
2022/01/25 14:27:27;;;;;;;;;;;22.80;75.80;;;;;;5079953;28;19952;-75
2022/01/25 14:29:54;;;;;;;;;;;22.80;75.90;;;;;;5093389;28;19904;-75
2022/01/25 14:32:35;;;;;;;;;;;22.80;75.90;;;;;;5092279;28;19912;-74
2022/01/25 14:35:07;;;;;;;;;;;22.80;75.90;;;;;;5092411;28;19915;-75
2022/01/25 14:37:34;;;;;;;;;;;22.80;75.80;;;;;;5092461;28;19927;-74
2022/01/25 14:40:04;;;;;;;;;;;22.80;76.00;;;;;;5092828;28;19908;-75
2022/01/25 14:42:31;;;;;;;;;;;22.80;75.90;;;;;;5083614;28;19908;-75
2022/01/25 14:45:04;;;;;;;;;;;22.80;76.20;;;;;;5089814;28;19920;-75
2022/01/25 14:47:38;;;;;;;;;;;22.70;76.40;;;;;;5074401;28;19908;-75
2022/01/25 14:50:14;;;;;;;;;;;22.80;76.60;;;;;;5093077;28;20423;-75
2022/01/25 14:52:41;;;;;;;;;;;22.80;76.40;;;;;;5059849;28;19928;-74
2022/01/25 14:55:20;;;;;;;;;;;22.70;76.20;;;;;;5050526;28;19955;-74
2022/01/25 14:58:03;;;;;;;;;;;22.70;76.30;;;;;;5085990;28;20447;-74
2022/01/25 15:00:30;;;;;;;;;;;22.70;76.50;;;;;;5092013;28;19904;-75
2022/01/25 15:02:57;;;;;;;;;;;22.70;76.60;;;;;;5077952;28;19908;-75
2022/01/25 15:05:23;;;;;;;;;;;22.70;76.60;;;;;;5074158;28;20401;-74
2022/01/25 15:07:50;;;;;;;;;;;22.70;76.60;;;;;;5092589;28;19904;-74
2022/01/25 15:10:20;;;;;;;;;;;22.70;76.70;;;;;;5092462;28;20282;-75
2022/01/25 15:12:49;;;;;;;;;;;22.70;76.80;;;;;;5073400;28;19923;-75
2022/01/25 15:15:23;;;;;;;;;;;22.80;76.70;;;;;;5092366;28;20279;-75
2022/01/25 15:17:50;;;;;;;;;;;22.70;76.70;;;;;;5092522;28;19990;-75
2022/01/25 15:20:16;;;;;;;;;;;22.70;76.90;;;;;;5092269;28;20326;-75
2022/01/25 15:22:45;;;;;;;;;;;22.70;76.70;;;;;;5092021;28;19991;-74
2022/01/25 15:25:13;;;;;;;;;;;22.70;76.60;;;;;;5077108;28;19916;-75
2022/01/25 15:27:40;;;;;;;;;;;22.70;76.60;;;;;;5071238;28;19909;-75
2022/01/25 15:30:07;;;;;;;;;;;22.70;76.80;;;;;;5073003;28;19950;-75
2022/01/25 15:32:33;;;;;;;;;;;22.70;76.70;;;;;;5085766;28;19928;-74
2022/01/25 15:35:00;;;;;;;;;;;22.70;76.90;;;;;;5073456;28;19912;-74
2022/01/25 15:37:27;;;;;;;;;;;22.70;76.90;;;;;;5055955;28;20003;-74
2022/01/25 15:39:53;;;;;;;;;;;22.70;76.90;;;;;;5053460;28;19905;-74
2022/01/25 15:42:23;;;;;;;;;;;22.70;76.60;;;;;;5078702;28;19909;-75
2022/01/25 15:44:51;;;;;;;;;;;22.60;76.60;;;;;;5071600;28;20381;-75
2022/01/25 15:47:19;;;;;;;;;;;22.60;76.80;;;;;;5037610;28;19911;-75
2022/01/25 15:49:45;;;;;;;;;;;22.60;76.80;;;;;;5070834;28;19913;-73
2022/01/25 15:52:12;;;;;;;;;;;22.50;76.90;;;;;;5064815;28;20377;-73
2022/01/25 15:54:41;;;;;;;;;;;22.50;77.20;;;;;;5065569;28;19924;-75
2022/01/25 15:57:07;;;;;;;;;;;22.50;77.20;;;;;;5086358;28;19915;-74
2022/01/25 15:59:34;;;;;;;;;;;22.50;77.30;;;;;;5065896;28;19905;-75
2022/01/25 16:02:09;;;;;;;;;;;22.50;77.40;;;;;;5066546;28;20007;-74
2022/01/25 16:04:41;;;;;;;;;;;22.50;77.40;;;;;;5054269;28;20373;-75
2022/01/25 16:07:11;;;;;;;;;;;22.40;77.50;;;;;;5084896;28;19908;-75
2022/01/25 16:09:39;;;;;;;;;;;22.40;77.70;;;;;;5071181;28;19932;-75
2022/01/25 16:12:06;;;;;;;;;;;22.50;77.80;;;;;;5076809;28;19924;-74
2022/01/25 16:14:34;;;;;;;;;;;22.40;77.70;;;;;;5071449;28;19909;-74
2022/01/25 16:17:02;;;;;;;;;;;22.40;78.10;;;;;;5054398;28;19914;-74
2022/01/25 16:19:29;;;;;;;;;;;22.40;78.20;;;;;;5071068;28;19905;-74
2022/01/25 16:21:55;;;;;;;;;;;22.40;78.20;;;;;;5062382;28;19909;-74
2022/01/25 16:24:22;;;;;;;;;;;22.40;78.00;;;;;;5059689;28;19965;-74
2022/01/25 16:26:49;;;;;;;;;;;22.40;78.10;;;;;;5061692;28;20346;-74
2022/01/25 16:29:16;;;;;;;;;;;22.30;78.20;;;;;;5055163;28;19918;-74
2022/01/25 16:31:43;;;;;;;;;;;22.30;78.10;;;;;;5065913;28;19917;-74
2022/01/25 16:34:10;;;;;;;;;;;22.30;78.40;;;;;;5070727;28;20350;-74
2022/01/25 16:36:37;;;;;;;;;;;22.30;78.50;;;;;;5056927;28;19909;-74
2022/01/25 16:39:04;;;;;;;;;;;22.30;78.40;;;;;;5068122;28;19908;-74
2022/01/25 16:41:31;;;;;;;;;;;22.30;78.40;;;;;;5076964;28;19908;-74
2022/01/25 16:43:57;;;;;;;;;;;22.30;78.70;;;;;;5064857;28;20003;-74
2022/01/25 16:46:24;;;;;;;;;;;22.20;78.80;;;;;;5064592;28;19963;-74
2022/01/25 16:48:51;;;;;;;;;;;22.20;79.00;;;;;;5074460;28;19999;-74
2022/01/25 16:51:17;;;;;;;;;;;22.30;78.90;;;;;;5078996;28;20443;-74
2022/01/25 16:56:10;;;;;;;;;;;22.20;79.00;;;;;;5064422;28;20331;-74
2022/01/25 16:58:36;;;;;;;;;;;22.20;79.00;;;;;;5070018;28;19912;-74
2022/01/25 17:01:03;;;;;;;;;;;22.20;79.10;;;;;;5051394;28;19904;-74
2022/01/25 17:03:29;;;;;;;;;;;22.20;79.10;;;;;;5066391;28;20015;-74
2022/01/25 17:05:56;;;;;;;;;;;22.20;79.30;;;;;;5061492;28;19951;-74
2022/01/25 17:08:23;;;;;;;;;;;22.20;79.30;;;;;;5055810;28;19908;-75
2022/01/25 17:10:50;;;;;;;;;;;22.20;79.30;;;;;;5070630;28;20305;-74
2022/01/25 17:13:17;;;;;;;;;;;22.20;79.30;;;;;;5071583;28;20278;-74
2022/01/25 17:15:45;;;;;;;;;;;22.20;79.40;;;;;;5063449;28;19908;-74
2022/01/25 17:18:12;;;;;;;;;;;22.20;79.40;;;;;;5054121;28;19904;-75
2022/01/25 17:20:39;;;;;;;;;;;22.20;79.50;;;;;;5070822;28;19911;-75
2022/01/25 17:23:05;;;;;;;;;;;22.10;79.50;;;;;;5070153;28;19916;-74
2022/01/25 17:25:33;;;;;;;;;;;22.10;79.70;;;;;;5061936;28;19905;-74
2022/01/25 17:28:00;;;;;;;;;;;22.10;79.80;;;;;;5069008;28;19947;-74
2022/01/25 17:30:27;;;;;;;;;;;22.10;79.80;;;;;;5052111;28;20007;-74
2022/01/25 17:32:53;;;;;;;;;;;22.10;80.10;;;;;;5064935;28;19920;-74
2022/01/25 17:35:20;;;;;;;;;;;22.10;80.20;;;;;;5048426;28;19904;-75
2022/01/25 17:37:46;;;;;;;;;;;22.00;80.30;;;;;;5053444;28;19961;-73
2022/01/25 17:40:13;;;;;;;;;;;22.00;80.30;;;;;;5068750;28;19908;-74
2022/01/25 17:42:40;;;;;;;;;;;21.90;80.50;;;;;;5071279;28;19962;-74
2022/01/25 17:45:08;;;;;;;;;;;22.00;80.70;;;;;;5068367;28;19908;-74
2022/01/25 17:47:35;;;;;;;;;;;21.90;80.90;;;;;;5047380;28;19913;-74
2022/01/25 17:50:01;;;;;;;;;;;21.80;81.20;;;;;;5065334;28;19908;-74
2022/01/25 17:52:28;;;;;;;;;;;21.80;81.40;;;;;;5076799;28;19927;-74
2022/01/25 17:54:56;;;;;;;;;;;21.80;81.40;;;;;;5065481;28;19957;-73
2022/01/25 17:57:22;;;;;;;;;;;21.80;81.60;;;;;;5078794;28;19943;-74
2022/01/25 17:59:49;;;;;;;;;;;21.80;81.60;;;;;;5081237;28;19916;-74
2022/01/25 18:02:25;;;;;;;;;;;21.80;81.60;;;;;;5083770;28;20000;-74
2022/01/25 18:04:52;;;;;;;;;;;21.80;81.60;;;;;;5090745;28;19951;-74
2022/01/25 18:07:18;;;;;;;;;;;21.80;81.40;;;;;;5082279;28;20007;-74
2022/01/25 18:09:49;;;;;;;;;;;21.80;81.30;;;;;;5068102;28;19981;-74
2022/01/25 18:12:15;;;;;;;;;;;21.80;80.90;;;;;;5087004;28;19955;-74
2022/01/25 18:14:42;;;;;;;;;;;21.80;81.10;;;;;;5080593;28;19911;-74
2022/01/25 18:17:09;;;;;;;;;;;21.80;81.10;;;;;;5082651;28;19918;-74
2022/01/25 18:19:42;;;;;;;;;;;21.80;81.10;;;;;;5067160;28;19908;-74
2022/01/25 18:22:08;;;;;;;;;;;21.80;81.10;;;;;;5075132;28;19907;-74
2022/01/25 18:24:46;;;;;;;;;;;21.80;81.00;;;;;;5084166;28;19908;-74
2022/01/25 18:27:13;;;;;;;;;;;21.80;81.10;;;;;;5079563;28;19916;-74
2022/01/25 18:29:39;;;;;;;;;;;21.90;81.30;;;;;;5074621;28;19908;-73
2022/01/25 18:32:07;;;;;;;;;;;21.80;81.40;;;;;;5081908;28;19916;-73
2022/01/25 18:34:34;;;;;;;;;;;21.90;81.30;;;;;;5063681;28;19908;-74
2022/01/25 18:37:01;;;;;;;;;;;21.90;81.30;;;;;;5084513;28;19999;-74
2022/01/25 18:39:28;;;;;;;;;;;21.90;81.40;;;;;;5080585;28;19908;-74
2022/01/25 18:41:54;;;;;;;;;;;21.90;81.60;;;;;;5048947;28;20329;-74
2022/01/25 18:44:21;;;;;;;;;;;21.90;81.50;;;;;;5092993;28;20247;-74
2022/01/25 18:46:48;;;;;;;;;;;22.00;81.40;;;;;;5065616;28;20370;-74
2022/01/25 18:49:15;;;;;;;;;;;22.00;81.40;;;;;;5071440;28;20401;-74
2022/01/25 18:51:41;;;;;;;;;;;22.00;81.40;;;;;;5072597;28;20465;-74
2022/01/25 18:54:08;;;;;;;;;;;22.00;81.50;;;;;;5084502;28;19908;-73
2022/01/25 18:56:35;;;;;;;;;;;22.00;81.50;;;;;;5078487;28;19923;-73
2022/01/25 18:59:02;;;;;;;;;;;22.00;81.40;;;;;;5070820;28;19908;-74
2022/01/25 19:01:28;;;;;;;;;;;22.00;81.30;;;;;;5073292;28;19908;-73
2022/01/25 19:03:55;;;;;;;;;;;22.00;81.20;;;;;;5072332;28;19961;-73
2022/01/25 19:06:22;;;;;;;;;;;22.00;81.30;;;;;;5070775;28;20361;-73
2022/01/25 19:08:49;;;;;;;;;;;22.00;81.30;;;;;;5079240;28;20725;-73
2022/01/25 19:11:15;;;;;;;;;;;22.00;81.20;;;;;;5095684;28;20350;-73
2022/01/25 19:13:42;;;;;;;;;;;22.00;81.30;;;;;;5064220;28;19909;-73
2022/01/25 19:16:10;;;;;;;;;;;22.10;81.30;;;;;;5084443;28;19915;-74
2022/01/25 19:18:37;;;;;;;;;;;22.10;81.40;;;;;;5078339;28;19904;-74
2022/01/25 19:21:04;;;;;;;;;;;22.10;81.40;;;;;;5080264;28;19968;-73
2022/01/25 19:23:30;;;;;;;;;;;22.10;81.40;;;;;;5070778;28;20002;-71
2022/01/25 19:25:57;;;;;;;;;;;22.10;81.30;;;;;;5065291;28;20405;-71
2022/01/25 19:28:24;;;;;;;;;;;22.10;81.40;;;;;;5043876;28;20020;-71
2022/01/25 19:30:50;;;;;;;;;;;22.10;81.20;;;;;;5049015;28;19911;-71
2022/01/25 19:33:17;;;;;;;;;;;22.20;81.20;;;;;;5035312;28;20385;-72
2022/01/25 19:35:44;;;;;;;;;;;22.20;81.00;;;;;;5051806;28;19909;-72
2022/01/25 19:38:15;;;;;;;;;;;22.30;81.10;;;;;;5041997;28;19995;-73
2022/01/25 19:40:43;;;;;;;;;;;22.30;81.20;;;;;;5045511;28;20382;-73
2022/01/25 19:43:12;;;;;;;;;;;22.40;81.20;;;;;;5050660;28;19916;-71
2022/01/25 19:45:39;;;;;;;;;;;22.50;81.30;;;;;;5042585;28;19905;-73
2022/01/25 19:48:06;;;;;;;;;;;22.50;81.30;;;;;;5026723;28;19936;-74
2022/01/25 19:50:39;;;;;;;;;;;22.50;81.40;;;;;;5026986;28;19917;-71
2022/01/25 19:53:10;;;;;;;;;;;22.50;81.90;;;;;;5047861;28;19952;-72
2022/01/25 19:55:40;;;;;;;;;;;22.40;82.10;;;;;;5031928;28;19916;-70
2022/01/25 19:58:07;;;;;;;;;;;22.40;82.50;;;;;;5022908;28;19905;-69
2022/01/25 20:00:34;;;;;;;;;;;22.40;82.50;;;;;;5049721;28;20373;-70
2022/01/25 20:03:01;;;;;;;;;;;22.40;82.80;;;;;;5042759;28;20462;-70
2022/01/25 20:05:27;;;;;;;;;;;22.40;82.90;;;;;;5044909;28;19963;-73
2022/01/25 20:07:54;;;;;;;;;;;22.30;82.80;;;;;;5045179;28;19909;-72
2022/01/25 20:10:21;;;;;;;;;;;22.40;82.90;;;;;;5042777;28;19908;-74
2022/01/25 20:12:47;;;;;;;;;;;22.40;82.90;;;;;;5044192;28;19920;-74
2022/01/25 20:15:14;;;;;;;;;;;22.40;82.70;;;;;;5041067;28;19913;-73
2022/01/25 20:17:43;;;;;;;;;;;22.30;82.60;;;;;;5056212;28;19916;-72
2022/01/25 20:20:20;;;;;;;;;;;22.30;82.80;;;;;;5038724;28;20485;-72
2022/01/25 20:22:55;;;;;;;;;;;22.30;82.80;;;;;;5046663;28;19916;-72
2022/01/25 20:29:07;;;;;;;;;;;22.40;82.70;;;;;;5055064;28;19974;-73
2022/01/25 20:31:02;;;;;;;;;;;22.40;82.80;;;;;;5052219;28;19923;-72
2022/01/25 20:33:30;;;;;;;;;;;22.40;82.70;;;;;;5071810;28;19973;-73
2022/01/25 20:35:57;;;;;;;;;;;22.40;82.70;;;;;;5070759;28;19950;-73
2022/01/25 20:38:23;;;;;;;;;;;22.50;82.40;;;;;;5070472;28;20015;-74
2022/01/25 20:40:50;;;;;;;;;;;22.40;82.20;;;;;;5037120;28;19919;-72
2022/01/25 20:43:20;;;;;;;;;;;22.50;82.00;;;;;;5070750;28;20286;-73